Aeroporto :
LOGIN :

Iscrizione | Disclaimer

   EN    FR    IT 

 










Sommario :    VFR   VFR Marginale   IFR   IFR Intensivo   IFR Molto Intensivo
Visibilità : 
Base nubi : 
>= 8 km
>= 3000ft
5 / 8 km
1000 / 3000 ft
1500m / 5 km
500 / 1000 ft
800 / 1500m
200 / 500 ft
< 800m
< 200 ft
Simboli :   Temporali  Nebbia  Neve Forte  Precipitazioni Forti  Vento > 20 kt
SIGMETs :   Varie  Temporali  Ghiacco  Turbolenza  Onda orograficha  Ceneri Vulcaniche






- Altitudine del aeroporto : 131 ft
- Codice IATA : TLL


EETN - Talinn

ULTIMO METAR :
  • 031420Z 15006KT 130V220 9999 OVC015 M01/M03 Q1019 R08/19//95 NOSIG

METARs OBSOLETI :
  • 031350Z 15006KT 120V180 9999 OVC015 M01/M03 Q1020 R08/19//95 TEMPO -FZDZ
  • 031320Z 14009KT 110V180 9999 OVC014 M01/M03 Q1020 R08/19//95 TEMPO -FZDZ
  • 031250Z 14006KT 110V180 9999 OVC013 M01/M03 Q1020 R08/19//95 NOSIG
  • 031220Z 15006KT 9999 OVC012 M01/M03 Q1020 R08/19//95 NOSIG
  • 031150Z 14008KT 100V160 9999 OVC011 M01/M03 Q1020 R08/19//95 NOSIG

TAF TAF EETN
Valido dal 03 a 12 ore il 04 a 12 ore UTC


031125Z 0312/0412 14010KT 9999 OVC012
PROB40
TEMPO 0313/0316 4000 -FZDZ BKN007 OVC015
TEMPO 0319/0403 BKN006 BKN015
TEMPO 0404/0412 16015G25KT
PROB40
TEMPO 0405/0410 3000 FZDZ SN BKN007 BKN020



MetMap, La meteo Aeronautica in un colpo d'occhio ! - Copyright ORBIFLY Dicembre 2007 - Disclaimer

ORBIFLY MET'MAP TEAM :

Programmazione e sviluppo : Alexandra Zaïnal
Concezione : Baudouin d'Aumeries
Aiuto per la programmazione : Marc-Olivier Méhu
Supporto tecnico e logistico : Manuel Goepfert
Aiuto per la traduzione : Arnaldo La Scala

Contatto : metmap@orbifly.com




FONTI E CREDITI :

   NOAA